createdAt,value
2018-05-14T00:00:15.204Z,6.10
2018-05-14T00:02:41.963Z,7.00
2018-05-14T00:05:08.743Z,7.60
2018-05-14T00:07:36.509Z,6.77
2018-05-14T00:10:03.293Z,6.57
2018-05-14T00:12:30.051Z,6.77
2018-05-14T00:14:57.607Z,5.93
2018-05-14T00:17:24.981Z,6.87
2018-05-14T00:19:51.733Z,7.70
2018-05-14T00:22:18.542Z,6.37
2018-05-14T00:24:45.339Z,6.40
2018-05-14T00:27:12.408Z,6.20
2018-05-14T00:29:39.189Z,6.27
2018-05-14T00:32:05.939Z,5.90
2018-05-14T00:34:32.699Z,6.80
2018-05-14T00:36:59.495Z,5.80
2018-05-14T00:39:26.259Z,6.77
2018-05-14T00:41:53.028Z,6.07
2018-05-14T00:44:19.829Z,5.60
2018-05-14T00:46:47.311Z,5.17
2018-05-14T00:49:14.049Z,6.43
2018-05-14T00:51:40.859Z,5.87
2018-05-14T00:54:07.606Z,4.67
2018-05-14T00:56:34.349Z,5.70
2018-05-14T00:59:01.134Z,5.27
2018-05-14T01:01:27.863Z,5.53
2018-05-14T01:03:54.609Z,6.90
2018-05-14T01:06:21.427Z,5.40
2018-05-14T01:08:48.178Z,5.50
2018-05-14T01:11:14.945Z,6.73
2018-05-14T01:13:41.745Z,5.83
2018-05-14T01:16:08.511Z,6.33
2018-05-14T01:18:35.249Z,5.93
2018-05-14T01:21:02.060Z,5.30
2018-05-14T01:23:28.817Z,5.70
2018-05-14T01:25:55.590Z,5.40
2018-05-14T01:28:22.370Z,4.40
2018-05-14T01:30:49.109Z,5.10
2018-05-14T01:33:15.851Z,5.60
2018-05-14T01:35:42.634Z,5.17
2018-05-14T01:38:09.390Z,5.37
2018-05-14T01:40:36.131Z,7.30
2018-05-14T01:43:02.928Z,5.23
2018-05-14T01:45:29.669Z,5.77
2018-05-14T01:47:56.408Z,5.47
2018-05-14T01:50:23.213Z,5.47
2018-05-14T01:52:49.965Z,4.50
2018-05-14T01:55:16.725Z,6.00
2018-05-14T01:57:43.519Z,4.40
2018-05-14T02:00:10.308Z,6.17
2018-05-14T02:02:37.668Z,4.37
2018-05-14T02:05:04.476Z,5.50
2018-05-14T02:07:31.248Z,5.20
2018-05-14T02:09:57.986Z,6.10
2018-05-14T02:12:24.800Z,5.10
2018-05-14T02:14:51.563Z,5.13
2018-05-14T02:17:18.319Z,5.27
2018-05-14T02:19:45.097Z,5.33
2018-05-14T02:22:11.849Z,6.27
2018-05-14T02:24:38.627Z,6.07
2018-05-14T02:27:05.408Z,5.10
2018-05-14T02:29:32.174Z,5.77
2018-05-14T02:31:58.941Z,5.33
2018-05-14T02:34:25.709Z,5.50
2018-05-14T02:36:52.449Z,5.37
2018-05-14T02:39:19.191Z,5.57
2018-05-14T02:41:45.980Z,5.50
2018-05-14T02:44:13.045Z,4.83
2018-05-14T02:46:39.790Z,4.70
2018-05-14T02:49:06.558Z,4.97
2018-05-14T02:51:33.297Z,6.13
2018-05-14T02:54:00.057Z,5.27
2018-05-14T02:56:26.872Z,5.70
2018-05-14T02:58:53.621Z,5.57
2018-05-14T03:01:20.403Z,5.63
2018-05-14T03:03:47.193Z,5.00
2018-05-14T03:06:13.937Z,6.70
2018-05-14T03:08:40.671Z,5.60
2018-05-14T03:11:07.777Z,6.00
2018-05-14T03:13:34.514Z,6.20
2018-05-14T03:16:01.256Z,6.00
2018-05-14T03:18:28.042Z,6.20
2018-05-14T03:20:54.786Z,5.43
2018-05-14T03:23:21.525Z,5.87
2018-05-14T03:25:48.310Z,6.40
2018-05-14T03:28:15.074Z,6.10
2018-05-14T03:30:42.212Z,5.30
2018-05-14T03:33:09.016Z,6.50
2018-05-14T03:35:35.767Z,5.73
2018-05-14T03:38:02.584Z,6.37
2018-05-14T03:40:29.373Z,6.53
2018-05-14T03:42:56.715Z,6.40
2018-05-14T03:45:23.478Z,7.27
2018-05-14T03:47:50.264Z,7.20
2018-05-14T03:50:17.005Z,7.83
2018-05-14T03:52:43.764Z,6.50
2018-05-14T03:55:10.532Z,6.50
2018-05-14T03:57:37.673Z,6.70
2018-05-14T04:00:10.392Z,5.80
2018-05-14T04:02:53.980Z,7.57
2018-05-14T04:05:20.803Z,6.70
2018-05-14T04:07:47.882Z,5.40
2018-05-14T04:10:14.647Z,6.50
2018-05-14T04:12:41.425Z,7.07
2018-05-14T04:15:08.176Z,7.07
2018-05-14T04:17:34.927Z,7.00
2018-05-14T04:20:01.703Z,6.27
2018-05-14T04:22:28.460Z,6.60
2018-05-14T04:24:55.253Z,6.87
2018-05-14T04:27:22.024Z,6.50
2018-05-14T04:29:49.361Z,6.33
2018-05-14T04:32:16.163Z,6.60
2018-05-14T04:34:42.943Z,7.40
2018-05-14T04:37:09.721Z,6.87
2018-05-14T04:39:36.488Z,6.77
2018-05-14T04:42:03.288Z,6.90
2018-05-14T04:44:30.067Z,6.30
2018-05-14T04:46:56.835Z,6.73
2018-05-14T04:49:23.636Z,6.07
2018-05-14T04:51:50.392Z,7.53
2018-05-14T04:54:17.172Z,5.60
2018-05-14T04:56:44.310Z,5.77
2018-05-14T04:59:11.099Z,6.43
2018-05-14T05:01:37.905Z,6.97
2018-05-14T05:04:04.697Z,6.60
2018-05-14T05:06:31.470Z,7.43
2018-05-14T05:08:58.233Z,8.03
2018-05-14T05:11:25.854Z,7.50
2018-05-14T05:13:52.819Z,6.40
2018-05-14T05:16:19.614Z,7.63
2018-05-14T05:18:46.427Z,7.67
2018-05-14T05:21:14.255Z,5.97
2018-05-14T05:23:41.754Z,7.00
2018-05-14T05:26:08.916Z,6.60
2018-05-14T05:28:35.702Z,6.73
2018-05-14T05:31:02.439Z,6.20
2018-05-14T05:33:29.232Z,6.97
2018-05-14T05:35:56.468Z,5.97
2018-05-14T05:38:23.256Z,6.53
2018-05-14T05:40:50.064Z,6.37
2018-05-14T05:43:16.798Z,6.10
2018-05-14T05:45:43.553Z,7.47
2018-05-14T05:48:10.378Z,7.33
2018-05-14T05:50:37.139Z,6.67
2018-05-14T05:53:03.922Z,6.87
2018-05-14T05:55:30.701Z,7.17
2018-05-14T05:57:57.456Z,6.00
2018-05-14T06:00:24.920Z,6.33
2018-05-14T06:02:51.732Z,5.83
2018-05-14T06:05:18.509Z,6.60
2018-05-14T06:07:45.287Z,6.27
2018-05-14T06:10:12.069Z,6.33
2018-05-14T06:12:38.824Z,6.47
2018-05-14T06:15:06.323Z,6.00
2018-05-14T06:17:33.132Z,5.63
2018-05-14T06:19:59.932Z,5.83
2018-05-14T06:22:26.685Z,6.03
2018-05-14T06:24:53.477Z,6.10
2018-05-14T06:27:20.276Z,5.00
2018-05-14T06:29:47.061Z,5.47
2018-05-14T06:32:13.831Z,6.00
2018-05-14T06:34:40.573Z,6.20
2018-05-14T06:37:08.125Z,6.60
2018-05-14T06:39:36.001Z,5.73
2018-05-14T06:42:03.998Z,5.43
2018-05-14T06:44:30.780Z,6.00
2018-05-14T06:46:57.559Z,5.37
2018-05-14T06:49:24.378Z,5.90
2018-05-14T06:51:51.141Z,4.63
2018-05-14T06:54:17.967Z,5.40
2018-05-14T06:56:44.721Z,6.47
2018-05-14T06:59:11.504Z,6.47
2018-05-14T07:01:38.290Z,4.93
2018-05-14T07:04:05.037Z,5.27
2018-05-14T07:06:31.835Z,5.40
2018-05-14T07:08:58.656Z,4.90
2018-05-14T07:11:25.413Z,6.20
2018-05-14T07:13:52.169Z,5.70
2018-05-14T07:16:18.978Z,6.23
2018-05-14T07:18:46.127Z,5.97
2018-05-14T07:21:12.886Z,5.73
2018-05-14T07:23:39.708Z,7.00
2018-05-14T07:26:06.790Z,5.50
2018-05-14T07:28:33.555Z,5.43
2018-05-14T07:31:00.394Z,7.47
2018-05-14T07:33:27.780Z,6.53
2018-05-14T07:35:55.107Z,6.10
2018-05-14T07:38:21.933Z,5.40
2018-05-14T07:40:48.705Z,6.50
2018-05-14T07:43:15.468Z,6.10
2018-05-14T07:45:42.582Z,5.90
2018-05-14T07:48:09.353Z,6.27
2018-05-14T07:50:36.117Z,5.60
2018-05-14T07:53:02.925Z,6.70
2018-05-14T07:55:29.927Z,6.47
2018-05-14T07:57:56.544Z,6.27
2018-05-14T08:00:23.361Z,7.30
2018-05-14T08:02:50.133Z,8.77
2018-05-14T08:05:16.919Z,8.53
2018-05-14T08:07:43.710Z,7.00
2018-05-14T08:10:10.480Z,8.70
2018-05-14T08:12:38.109Z,6.93
2018-05-14T08:15:04.896Z,7.13
2018-05-14T08:17:31.700Z,7.80
2018-05-14T08:19:58.460Z,7.10
2018-05-14T08:22:25.239Z,5.73
2018-05-14T08:24:51.995Z,6.40
2018-05-14T08:27:18.741Z,5.70
2018-05-14T08:29:45.547Z,6.00
2018-05-14T08:32:12.285Z,5.30
2018-05-14T08:34:39.046Z,6.40
2018-05-14T08:37:05.940Z,6.40
2018-05-14T08:39:32.995Z,6.97
2018-05-14T08:41:59.736Z,6.87
2018-05-14T08:44:26.523Z,5.87
2018-05-14T08:46:53.705Z,6.67
2018-05-14T08:49:20.529Z,8.10
2018-05-14T08:51:47.312Z,6.70
2018-05-14T08:54:14.190Z,6.53
2018-05-14T08:56:40.868Z,6.67
2018-05-14T08:59:07.671Z,6.47
2018-05-14T09:01:34.440Z,5.70
2018-05-14T09:04:01.196Z,6.30
2018-05-14T09:06:27.994Z,6.70
2018-05-14T09:08:54.944Z,6.37
2018-05-14T09:11:21.702Z,6.37
2018-05-14T09:13:49.304Z,6.30
2018-05-14T09:16:16.056Z,6.53
2018-05-14T09:18:42.812Z,6.13
2018-05-14T09:21:09.659Z,6.20
2018-05-14T09:23:36.393Z,6.23
2018-05-14T09:26:03.133Z,6.00
2018-05-14T09:28:29.940Z,6.13
2018-05-14T09:30:56.720Z,6.00
2018-05-14T09:33:23.480Z,6.50
2018-05-14T09:35:50.253Z,5.90
2018-05-14T09:38:17.019Z,5.97
2018-05-14T09:40:43.761Z,4.83
2018-05-14T09:43:10.606Z,5.70
2018-05-14T09:45:37.318Z,5.70
2018-05-14T09:48:04.108Z,5.70
2018-05-14T09:50:31.609Z,5.80
2018-05-14T09:52:58.388Z,5.70
2018-05-14T09:55:25.145Z,6.13
2018-05-14T09:57:51.967Z,5.70
2018-05-14T10:00:18.756Z,5.40
2018-05-14T10:02:45.514Z,5.33
2018-05-14T10:05:13.240Z,6.40
2018-05-14T10:07:40.092Z,5.57
2018-05-14T10:10:07.854Z,5.40
2018-05-14T10:12:34.661Z,5.60
2018-05-14T10:15:01.408Z,5.17
2018-05-14T10:17:28.192Z,5.07
2018-05-14T10:19:55.604Z,5.77
2018-05-14T10:22:22.384Z,6.10
2018-05-14T10:24:49.842Z,6.83
2018-05-14T10:27:16.644Z,6.23
2018-05-14T10:29:43.383Z,5.93
2018-05-14T10:32:10.169Z,5.30
2018-05-14T10:34:37.338Z,6.90
2018-05-14T10:37:04.080Z,7.10
2018-05-14T10:39:30.821Z,6.17
2018-05-14T10:41:57.648Z,7.07
2018-05-14T10:44:24.385Z,6.53
2018-05-14T10:46:51.394Z,6.23
2018-05-14T10:49:18.232Z,7.53
2018-05-14T10:51:45.685Z,6.50
2018-05-14T10:54:12.460Z,7.43
2018-05-14T10:56:39.295Z,6.07
2018-05-14T10:59:06.065Z,7.23
2018-05-14T11:01:32.842Z,6.43
2018-05-14T11:04:00.580Z,7.00
2018-05-14T11:06:27.311Z,5.90
2018-05-14T11:08:54.091Z,7.13
2018-05-14T11:11:20.878Z,7.50
2018-05-14T11:13:47.762Z,5.90
2018-05-14T11:16:15.610Z,7.63
2018-05-14T11:18:42.416Z,8.40
2018-05-14T11:21:09.180Z,7.90
2018-05-14T11:23:36.754Z,7.53
2018-05-14T11:26:04.949Z,7.67
2018-05-14T11:28:31.709Z,7.47
2018-05-14T11:30:58.557Z,7.67
2018-05-14T11:33:25.372Z,8.63
2018-05-14T11:35:52.171Z,8.60
2018-05-14T11:38:19.375Z,7.87
2018-05-14T11:40:46.162Z,7.73
2018-05-14T11:43:12.896Z,7.73
2018-05-14T11:45:39.664Z,7.53
2018-05-14T11:48:06.462Z,9.20
2018-05-14T11:50:33.224Z,7.13
2018-05-14T11:53:00.256Z,8.53
2018-05-14T11:55:27.038Z,8.23
2018-05-14T11:57:53.815Z,8.30
2018-05-14T12:00:20.582Z,9.00
2018-05-14T12:02:47.395Z,8.40
2018-05-14T12:05:14.160Z,8.00
2018-05-14T12:07:40.923Z,7.10
2018-05-14T12:10:08.463Z,8.37
2018-05-14T12:12:35.256Z,8.17
2018-05-14T12:15:02.041Z,7.50
2018-05-14T12:17:28.843Z,6.20
2018-05-14T12:19:55.613Z,7.93
2018-05-14T12:22:22.366Z,8.20
2018-05-14T12:24:49.153Z,6.97
2018-05-14T12:27:15.915Z,6.40
2018-05-14T12:29:42.673Z,6.43
2018-05-14T12:32:09.527Z,6.60
2018-05-14T12:34:36.274Z,7.30
2018-05-14T12:37:03.055Z,6.97
2018-05-14T12:39:29.860Z,5.80
2018-05-14T12:41:56.614Z,6.80
2018-05-14T12:44:23.373Z,6.47
2018-05-14T12:46:50.158Z,7.33
2018-05-14T12:49:16.921Z,7.07
2018-05-14T12:51:43.673Z,7.40
2018-05-14T12:54:10.489Z,7.63
2018-05-14T12:56:37.259Z,6.87
2018-05-14T12:59:04.020Z,7.30
2018-05-14T13:01:30.812Z,6.53
2018-05-14T13:03:57.906Z,8.37
2018-05-14T13:06:24.687Z,8.30
2018-05-14T13:08:51.506Z,7.40
2018-05-14T13:11:18.280Z,8.33
2018-05-14T13:13:45.044Z,7.70
2018-05-14T13:16:11.841Z,6.93
2018-05-14T13:18:38.582Z,7.20
2018-05-14T13:21:05.331Z,7.50
2018-05-14T13:23:32.884Z,7.40
2018-05-14T13:25:59.740Z,9.87
2018-05-14T13:28:26.510Z,8.20
2018-05-14T13:30:53.307Z,8.87
2018-05-14T13:33:20.100Z,8.07
2018-05-14T13:35:46.887Z,7.97
2018-05-14T13:38:13.674Z,7.63
2018-05-14T13:40:40.444Z,7.27
2018-05-14T13:43:07.206Z,8.67
2018-05-14T13:45:34.253Z,7.77
2018-05-14T13:48:01.636Z,7.63
2018-05-14T13:50:28.562Z,8.00
2018-05-14T13:52:55.361Z,9.20
2018-05-14T13:55:22.136Z,8.40
2018-05-14T13:57:48.888Z,7.60
2018-05-14T14:00:15.685Z,7.27
2018-05-14T14:02:42.468Z,7.00
2018-05-14T14:05:09.241Z,7.63
2018-05-14T14:07:37.185Z,8.90
2018-05-14T14:10:03.949Z,7.83
2018-05-14T14:12:30.717Z,7.57
2018-05-14T14:14:57.497Z,7.30
2018-05-14T14:17:24.264Z,8.00
2018-05-14T14:19:51.041Z,7.63
2018-05-14T14:22:17.840Z,8.47
2018-05-14T14:24:44.609Z,9.00
2018-05-14T14:27:11.400Z,8.23
2018-05-14T14:29:38.198Z,9.13
2018-05-14T14:32:04.953Z,8.67
2018-05-14T14:34:31.713Z,9.00
2018-05-14T14:36:58.533Z,9.43
2018-05-14T14:39:25.303Z,7.87
2018-05-14T14:41:52.141Z,9.30
2018-05-14T14:44:18.944Z,9.00
2018-05-14T14:46:45.702Z,9.27
2018-05-14T14:49:12.520Z,8.57
2018-05-14T14:51:39.297Z,9.00
2018-05-14T14:54:06.041Z,8.20
2018-05-14T14:56:32.815Z,8.77
2018-05-14T14:58:59.629Z,8.70
2018-05-14T15:01:26.393Z,10.30
2018-05-14T15:03:53.161Z,8.77
2018-05-14T15:06:20.356Z,8.57
2018-05-14T15:08:47.140Z,9.17
2018-05-14T15:11:13.926Z,8.67
2018-05-14T15:13:40.724Z,8.53
2018-05-14T15:16:07.519Z,8.43
2018-05-14T15:18:34.284Z,8.30
2018-05-14T15:21:01.087Z,9.30
2018-05-14T15:23:27.828Z,9.67
2018-05-14T15:25:55.049Z,7.83
2018-05-14T15:28:21.862Z,8.17
2018-05-14T15:30:48.633Z,9.40
2018-05-14T15:33:15.385Z,8.83
2018-05-14T15:35:42.193Z,10.63
2018-05-14T15:38:08.941Z,7.60
2018-05-14T15:40:35.709Z,9.10
2018-05-14T15:43:02.511Z,8.40
2018-05-14T15:45:29.293Z,9.10
2018-05-14T15:47:56.040Z,9.17
2018-05-14T15:50:22.824Z,8.60
2018-05-14T15:52:49.564Z,9.17
2018-05-14T15:55:16.377Z,8.37
2018-05-14T15:57:43.159Z,8.50
2018-05-14T16:00:09.938Z,8.47
2018-05-14T16:02:36.688Z,8.20
2018-05-14T16:05:03.503Z,8.03
2018-05-14T16:07:30.268Z,8.23
2018-05-14T16:09:57.011Z,8.70
2018-05-14T16:12:23.832Z,10.13
2018-05-14T16:14:50.603Z,8.30
2018-05-14T16:17:17.348Z,8.83
2018-05-14T16:19:44.169Z,8.57
2018-05-14T16:22:10.914Z,8.03
2018-05-14T16:24:38.293Z,8.70
2018-05-14T16:27:05.091Z,8.53
2018-05-14T16:29:31.850Z,9.17
2018-05-14T16:31:59.287Z,8.73
2018-05-14T16:34:26.062Z,9.67
2018-05-14T16:36:52.801Z,7.83
2018-05-14T16:39:19.649Z,8.03
2018-05-14T16:41:46.460Z,7.90
2018-05-14T16:44:13.251Z,7.63
2018-05-14T16:46:40.033Z,7.70
2018-05-14T16:49:06.820Z,7.43
2018-05-14T16:51:33.700Z,7.83
2018-05-14T16:54:01.068Z,8.50
2018-05-14T16:56:27.887Z,7.33
2018-05-14T16:58:55.312Z,7.90
2018-05-14T17:01:22.057Z,7.77
2018-05-14T17:03:48.865Z,7.73
2018-05-14T17:06:15.691Z,8.30
2018-05-14T17:08:43.176Z,6.80
2018-05-14T17:11:09.997Z,7.43
2018-05-14T17:13:36.741Z,6.30
2018-05-14T17:16:04.160Z,6.93
2018-05-14T17:18:30.963Z,6.13
2018-05-14T17:20:57.725Z,6.70
2018-05-14T17:23:24.835Z,6.63
2018-05-14T17:25:51.668Z,6.67
2018-05-14T17:28:18.437Z,7.10
2018-05-14T17:30:45.788Z,8.40
2018-05-14T17:33:12.590Z,7.63
2018-05-14T17:35:39.384Z,7.63
2018-05-14T17:38:06.188Z,8.20
2018-05-14T17:40:32.968Z,6.80
2018-05-14T17:42:59.727Z,8.10
2018-05-14T17:45:26.486Z,7.50
2018-05-14T17:47:53.277Z,7.53
2018-05-14T17:50:20.059Z,8.27
2018-05-14T17:52:46.893Z,7.90
2018-05-14T17:55:13.680Z,7.60
2018-05-14T17:57:40.456Z,7.37
2018-05-14T18:00:07.207Z,8.53
2018-05-14T18:02:34.029Z,9.77
2018-05-14T18:05:00.791Z,8.93
2018-05-14T18:07:28.255Z,8.97
2018-05-14T18:09:55.051Z,8.30
2018-05-14T18:12:21.873Z,7.50
2018-05-14T18:14:48.629Z,7.80
2018-05-14T18:17:15.417Z,8.50
2018-05-14T18:19:48.686Z,7.27
2018-05-14T18:22:21.188Z,8.00
2018-05-14T18:24:51.270Z,8.67
2018-05-14T18:27:23.851Z,8.10
2018-05-14T18:29:54.357Z,8.60
2018-05-14T18:32:21.125Z,7.70
2018-05-14T18:34:47.975Z,8.90
2018-05-14T18:37:15.178Z,8.83
2018-05-14T18:39:42.170Z,9.20
2018-05-14T18:42:08.946Z,8.93
2018-05-14T18:44:35.711Z,10.10
2018-05-14T18:47:02.472Z,9.87
2018-05-14T18:49:29.275Z,9.87
2018-05-14T18:51:56.078Z,9.60
2018-05-14T18:54:22.818Z,10.90
2018-05-14T18:56:49.639Z,9.77
2018-05-14T18:59:16.392Z,11.10
2018-05-14T19:01:43.173Z,10.30
2018-05-14T19:04:10.727Z,10.07
2018-05-14T19:06:37.481Z,9.93
2018-05-14T19:09:04.383Z,10.73
2018-05-14T19:11:36.754Z,10.17
2018-05-14T19:14:03.522Z,10.10
2018-05-14T19:16:35.838Z,10.23
2018-05-14T19:19:02.677Z,10.47
2018-05-14T19:21:29.434Z,11.87
2018-05-14T19:23:56.309Z,11.60
2018-05-14T19:26:23.076Z,11.50
2018-05-14T19:28:55.572Z,11.80
2018-05-14T19:31:22.392Z,12.27
2018-05-14T19:33:55.976Z,12.73
2018-05-14T19:36:22.747Z,12.80
2018-05-14T19:38:49.516Z,12.07
2018-05-14T19:41:16.314Z,11.67
2018-05-14T19:43:43.094Z,10.00
2018-05-14T19:46:09.874Z,10.17
2018-05-14T19:48:36.833Z,9.07
2018-05-14T19:51:03.685Z,10.83
2018-05-14T19:53:30.382Z,10.03
2018-05-14T19:55:57.546Z,9.40
2018-05-14T19:58:24.735Z,10.27
2018-05-14T20:00:51.792Z,10.40
2018-05-14T20:03:19.161Z,8.93
2018-05-14T20:05:46.512Z,9.07
2018-05-14T20:08:13.622Z,10.87
2018-05-14T20:10:41.170Z,11.50
2018-05-14T20:13:08.287Z,9.93
2018-05-14T20:15:35.336Z,9.90
2018-05-14T20:18:02.399Z,10.37
2018-05-14T20:20:29.192Z,8.90
2018-05-14T20:22:55.971Z,9.90
2018-05-14T20:25:23.290Z,9.57
2018-05-14T20:27:50.057Z,10.20
2018-05-14T20:30:16.821Z,9.17
2018-05-14T20:32:43.616Z,8.23
2018-05-14T20:35:10.385Z,10.60
2018-05-14T20:37:37.149Z,9.83
2018-05-14T20:40:04.697Z,9.20
2018-05-14T20:42:31.470Z,8.67
2018-05-14T20:44:58.244Z,9.83
2018-05-14T20:47:25.025Z,9.33
2018-05-14T20:49:51.808Z,10.40
2018-05-14T20:52:18.586Z,9.50
2018-05-14T20:54:45.408Z,9.20
2018-05-14T20:57:12.153Z,8.53
2018-05-14T20:59:39.343Z,9.50
2018-05-14T21:02:06.125Z,9.07
2018-05-14T21:04:32.886Z,10.53
2018-05-14T21:06:59.638Z,9.83
2018-05-14T21:09:26.448Z,10.07
2018-05-14T21:11:53.226Z,9.90
2018-05-14T21:14:20.028Z,11.33
2018-05-14T21:16:46.825Z,10.87
2018-05-14T21:19:13.589Z,11.30
2018-05-14T21:21:40.348Z,11.00
2018-05-14T21:24:07.715Z,9.83
2018-05-14T21:26:34.490Z,11.50
2018-05-14T21:29:01.255Z,10.53
2018-05-14T21:31:28.055Z,10.30
2018-05-14T21:33:55.488Z,10.30
2018-05-14T21:36:22.991Z,10.60
2018-05-14T21:38:49.808Z,11.40
2018-05-14T21:41:16.588Z,9.30
2018-05-14T21:43:43.345Z,11.57
2018-05-14T21:46:10.131Z,10.53
2018-05-14T21:48:36.888Z,10.47
2018-05-14T21:51:03.653Z,11.30
2018-05-14T21:53:30.442Z,11.47
2018-05-14T21:55:57.195Z,10.33
2018-05-14T21:58:23.964Z,11.90
2018-05-14T22:00:50.777Z,10.47
2018-05-14T22:03:17.548Z,9.87
2018-05-14T22:05:50.256Z,11.27
2018-05-14T22:08:17.006Z,10.50
2018-05-14T22:10:43.800Z,11.90
2018-05-14T22:13:11.193Z,10.33
2018-05-14T22:15:37.966Z,10.20
2018-05-14T22:18:04.768Z,11.30
2018-05-14T22:20:31.679Z,11.07
2018-05-14T22:22:58.445Z,11.10
2018-05-14T22:25:25.996Z,11.37
2018-05-14T22:27:52.771Z,10.00
2018-05-14T22:30:19.529Z,9.50
2018-05-14T22:32:46.288Z,11.17
2018-05-14T22:35:13.381Z,10.67
2018-05-14T22:37:40.128Z,12.00
2018-05-14T22:40:06.875Z,11.67
2018-05-14T22:42:34.029Z,11.47
2018-05-14T22:45:00.777Z,11.73
2018-05-14T22:47:27.533Z,12.53
2018-05-14T22:49:54.338Z,13.70
2018-05-14T22:52:21.100Z,11.40
2018-05-14T22:54:48.626Z,12.83
2018-05-14T22:57:15.430Z,13.07
2018-05-14T22:59:42.185Z,13.10
2018-05-14T23:02:08.954Z,12.90
2018-05-14T23:04:35.750Z,13.70
2018-05-14T23:07:02.513Z,13.20
2018-05-14T23:09:29.273Z,12.20
2018-05-14T23:11:56.067Z,12.40
2018-05-14T23:14:22.820Z,14.33
2018-05-14T23:16:49.585Z,15.23
2018-05-14T23:19:16.369Z,13.73
2018-05-14T23:21:43.129Z,14.70
2018-05-14T23:24:09.881Z,14.80
2018-05-14T23:26:36.665Z,14.70
2018-05-14T23:29:03.448Z,17.50
2018-05-14T23:31:30.803Z,17.23
2018-05-14T23:33:57.604Z,15.87
2018-05-14T23:36:24.342Z,16.83
2018-05-14T23:38:51.096Z,18.53
2018-05-14T23:41:17.882Z,17.57
2018-05-14T23:43:44.621Z,17.83
2018-05-14T23:46:11.364Z,17.57
2018-05-14T23:48:38.197Z,15.33
2018-05-14T23:51:04.942Z,17.40
2018-05-14T23:53:31.680Z,17.43
2018-05-14T23:55:58.477Z,16.63
2018-05-14T23:58:25.234Z,16.33
